Terminal Aerodrome Forecast
Issued by NWS

Home | Current Version | Previous Version | Text Only | Print | Product List | Glossary On
Versions: 1 2 3 4 5 6 7 8 9 10 11 12 13 14
000
FTUS44 KCRP 310500
TAFLRD
TAF
KLRD 310530Z 3106/0106 10012KT P6SM OVC015
     FM311000 12012KT P6SM BKN007 OVC012
      TEMPO 3110/3114 5SM -DZ BR OVC005
     FM311500 15014KT P6SM BKN012 OVC025
     FM311900 16016G22KT P6SM BKN035 OVC120 PROB30 3119/3123 6SM
      -SHRA OVC035
     FM312300 15012KT P6SM VCSH BKN025 OVC100
      TEMPO 3123/0103 5SM -SHRA OVC020=

USA.gov is the U.S. government's official web portal to all federal, state and local government web resources and services.